createdAt,value
2023-03-30T00:00:49.313Z,11.87
2023-03-30T00:03:19.469Z,11.33
2023-03-30T00:05:46.666Z,6.33
2023-03-30T00:08:18.680Z,9.57
2023-03-30T00:10:46.507Z,11.53
2023-03-30T00:13:13.797Z,11.70
2023-03-30T00:15:41.660Z,10.33
2023-03-30T00:18:09.216Z,11.77
2023-03-30T00:20:37.630Z,14.77
2023-03-30T00:23:04.934Z,8.07
2023-03-30T00:25:31.942Z,12.03
2023-03-30T00:27:58.818Z,8.83
2023-03-30T00:30:25.984Z,7.67
2023-03-30T00:32:53.873Z,9.40
2023-03-30T00:35:21.099Z,7.13
2023-03-30T00:37:49.781Z,9.50
2023-03-30T00:40:20.525Z,11.53
2023-03-30T00:42:49.114Z,10.67
2023-03-30T00:45:27.875Z,10.80
2023-03-30T00:48:00.111Z,8.90
2023-03-30T00:50:36.934Z,8.10
2023-03-30T00:53:10.203Z,9.97
2023-03-30T00:55:41.396Z,10.20
2023-03-30T00:58:11.743Z,8.63
2023-03-30T01:00:40.010Z,9.37
2023-03-30T01:03:35.465Z,9.43
2023-03-30T01:06:07.531Z,6.43
2023-03-30T01:08:37.212Z,13.23
2023-03-30T01:11:06.802Z,10.57
2023-03-30T01:13:36.760Z,11.07
2023-03-30T01:16:35.565Z,10.53
2023-03-30T01:19:03.158Z,10.00
2023-03-30T01:21:48.688Z,9.60
2023-03-30T01:24:34.785Z,8.43
2023-03-30T01:27:46.475Z,7.97
2023-03-30T01:30:43.754Z,10.37
2023-03-30T01:33:41.232Z,9.43
2023-03-30T01:36:35.365Z,8.53
2023-03-30T01:39:23.597Z,7.17
2023-03-30T01:41:56.364Z,6.97
2023-03-30T01:44:34.434Z,11.13
2023-03-30T01:47:12.421Z,9.57
2023-03-30T01:49:49.276Z,8.03
2023-03-30T01:52:23.527Z,8.10
2023-03-30T01:55:08.978Z,11.53
2023-03-30T01:57:51.505Z,8.47
2023-03-30T02:00:22.617Z,10.47
2023-03-30T02:02:55.829Z,9.53
2023-03-30T02:05:24.615Z,10.70
2023-03-30T02:08:01.607Z,9.10
2023-03-30T02:10:32.827Z,8.87
2023-03-30T02:13:01.030Z,11.30
2023-03-30T02:15:36.895Z,8.80
2023-03-30T02:18:05.017Z,12.70
2023-03-30T02:20:33.232Z,10.23
2023-03-30T02:23:01.539Z,10.50
2023-03-30T02:25:28.658Z,10.40
2023-03-30T02:27:56.286Z,8.10
2023-03-30T02:30:23.529Z,15.03
2023-03-30T02:32:54.935Z,11.73
2023-03-30T02:35:37.170Z,9.57
2023-03-30T02:38:40.768Z,9.77
2023-03-30T02:41:23.704Z,9.37
2023-03-30T02:44:26.110Z,7.87
2023-03-30T02:47:07.973Z,17.47
2023-03-30T02:49:57.115Z,9.87
2023-03-30T02:52:54.289Z,6.37
2023-03-30T02:55:45.985Z,10.83
2023-03-30T02:58:52.132Z,8.13
2023-03-30T03:01:29.177Z,13.67
2023-03-30T03:04:04.210Z,9.70
2023-03-30T03:06:39.999Z,9.67
2023-03-30T03:09:08.268Z,8.40
2023-03-30T03:11:36.153Z,12.63
2023-03-30T03:14:04.096Z,12.87
2023-03-30T03:16:33.433Z,11.67
2023-03-30T03:19:18.925Z,8.83
2023-03-30T03:21:49.275Z,16.70
2023-03-30T03:24:18.892Z,10.43
2023-03-30T03:27:12.016Z,8.90
2023-03-30T03:29:58.873Z,10.67
2023-03-30T03:32:26.140Z,8.73
2023-03-30T03:34:54.391Z,11.70
2023-03-30T03:37:22.096Z,9.13
2023-03-30T03:39:48.978Z,15.03
2023-03-30T03:42:16.623Z,10.23
2023-03-30T03:44:58.620Z,10.00
2023-03-30T03:47:25.781Z,12.47
2023-03-30T03:49:52.669Z,13.00
2023-03-30T03:52:19.831Z,14.00
2023-03-30T03:54:46.802Z,15.17
2023-03-30T03:57:13.933Z,12.67
2023-03-30T03:59:41.033Z,18.00
2023-03-30T04:02:08.093Z,10.03
2023-03-30T04:04:35.037Z,12.87
2023-03-30T04:07:02.355Z,10.27
2023-03-30T04:09:29.487Z,18.37
2023-03-30T04:12:02.191Z,11.67
2023-03-30T04:14:56.293Z,15.77
2023-03-30T04:17:28.940Z,11.13
2023-03-30T04:20:17.178Z,16.30
2023-03-30T04:23:02.798Z,15.83
2023-03-30T04:25:32.458Z,12.47
2023-03-30T04:28:31.762Z,11.43
2023-03-30T04:31:18.471Z,11.87
2023-03-30T04:34:04.900Z,13.20
2023-03-30T04:36:55.167Z,11.37
2023-03-30T04:39:22.108Z,16.97
2023-03-30T04:42:06.316Z,19.10
2023-03-30T04:44:47.687Z,16.70
2023-03-30T04:47:29.115Z,14.53
2023-03-30T04:50:13.628Z,12.53
2023-03-30T04:52:59.391Z,13.73
2023-03-30T04:55:58.790Z,13.07
2023-03-30T04:59:04.629Z,14.00
2023-03-30T05:01:45.809Z,14.87
2023-03-30T05:04:39.670Z,16.43
2023-03-30T05:07:32.732Z,13.57
2023-03-30T05:10:17.955Z,12.47
2023-03-30T05:12:57.643Z,20.20
2023-03-30T05:15:59.863Z,19.50
2023-03-30T05:18:26.775Z,16.53
2023-03-30T05:20:58.431Z,19.93
2023-03-30T05:23:26.307Z,15.03
2023-03-30T05:26:11.360Z,13.73
2023-03-30T05:28:52.491Z,18.73
2023-03-30T05:31:19.818Z,18.97
2023-03-30T05:34:16.144Z,12.80
2023-03-30T05:36:53.307Z,12.47
2023-03-30T05:39:35.460Z,12.33
2023-03-30T05:42:02.504Z,12.17
2023-03-30T05:45:01.447Z,10.50
2023-03-30T05:47:47.096Z,14.20
2023-03-30T05:50:34.463Z,12.07
2023-03-30T05:53:06.709Z,15.17
2023-03-30T05:56:02.999Z,15.67
2023-03-30T05:58:38.844Z,12.33
2023-03-30T06:01:26.340Z,13.97
2023-03-30T06:03:53.933Z,19.37
2023-03-30T06:06:21.556Z,13.13
2023-03-30T06:08:52.204Z,11.07
2023-03-30T06:11:23.082Z,13.43
2023-03-30T06:14:05.051Z,14.63
2023-03-30T06:16:32.548Z,15.80
2023-03-30T06:19:02.290Z,14.80
2023-03-30T06:21:29.909Z,15.53
2023-03-30T06:24:20.901Z,16.70
2023-03-30T06:26:49.511Z,15.33
2023-03-30T06:29:16.892Z,16.27
2023-03-30T06:31:43.881Z,12.67
2023-03-30T06:34:37.297Z,15.43
2023-03-30T06:37:07.326Z,15.93
2023-03-30T06:39:37.532Z,16.40
2023-03-30T06:42:06.460Z,13.40
2023-03-30T06:44:59.873Z,13.73
2023-03-30T06:47:27.235Z,12.93
2023-03-30T06:49:55.165Z,11.03
2023-03-30T06:52:38.220Z,13.83
2023-03-30T06:55:06.198Z,16.43
2023-03-30T06:57:33.492Z,15.03
2023-03-30T07:00:06.642Z,18.07
2023-03-30T07:02:40.645Z,13.80
2023-03-30T07:05:24.783Z,15.83
2023-03-30T07:08:07.991Z,15.83
2023-03-30T07:10:37.713Z,11.03
2023-03-30T07:13:07.447Z,19.40
2023-03-30T07:15:35.901Z,19.87
2023-03-30T07:18:03.354Z,15.77
2023-03-30T07:20:30.493Z,15.80
2023-03-30T07:23:17.993Z,14.33
2023-03-30T07:25:47.079Z,12.93
2023-03-30T07:28:20.526Z,22.77
2023-03-30T07:30:47.649Z,15.70
2023-03-30T07:33:15.872Z,15.03
2023-03-30T07:35:46.604Z,17.53
2023-03-30T07:38:16.744Z,18.97
2023-03-30T07:40:50.298Z,15.13
2023-03-30T07:43:18.340Z,14.60
2023-03-30T07:45:45.424Z,17.20
2023-03-30T07:48:18.627Z,14.90
2023-03-30T07:50:45.727Z,16.43
2023-03-30T07:53:13.033Z,17.17
2023-03-30T07:55:41.380Z,12.80
2023-03-30T07:58:17.047Z,18.60
2023-03-30T08:00:44.886Z,13.70
2023-03-30T08:03:50.850Z,13.93
2023-03-30T08:06:18.247Z,16.63
2023-03-30T08:08:48.286Z,13.43
2023-03-30T08:11:16.415Z,17.20
2023-03-30T08:13:44.549Z,14.50
2023-03-30T08:16:12.021Z,17.60
2023-03-30T08:18:41.407Z,20.73
2023-03-30T08:21:08.898Z,15.40
2023-03-30T08:23:36.064Z,16.93
2023-03-30T08:26:03.255Z,14.33
2023-03-30T08:28:30.922Z,14.23
2023-03-30T08:31:05.378Z,15.63
2023-03-30T08:33:32.691Z,15.07
2023-03-30T08:35:59.580Z,14.13
2023-03-30T08:38:26.658Z,15.10
2023-03-30T08:40:53.726Z,12.97
2023-03-30T08:43:33.348Z,15.17
2023-03-30T08:46:02.613Z,18.17
2023-03-30T08:48:35.598Z,15.83
2023-03-30T08:51:28.063Z,21.17
2023-03-30T08:54:07.132Z,18.20
2023-03-30T08:57:18.953Z,20.33
2023-03-30T09:00:11.620Z,12.17
2023-03-30T09:02:46.536Z,12.53
2023-03-30T09:05:30.424Z,13.23
2023-03-30T09:08:21.221Z,18.57
2023-03-30T09:11:01.356Z,14.50
2023-03-30T09:13:33.732Z,15.80
2023-03-30T09:16:32.702Z,12.10
2023-03-30T09:19:01.912Z,16.23
2023-03-30T09:21:31.572Z,14.43
2023-03-30T09:24:10.822Z,15.87
2023-03-30T09:27:02.302Z,17.00
2023-03-30T09:29:35.153Z,18.17
2023-03-30T09:32:17.709Z,17.10
2023-03-30T09:34:56.866Z,26.53
2023-03-30T09:37:25.104Z,15.57
2023-03-30T09:39:52.077Z,20.40
2023-03-30T09:42:34.222Z,18.57
2023-03-30T09:45:25.362Z,17.23
2023-03-30T09:47:52.782Z,13.80
2023-03-30T09:50:28.624Z,14.73
2023-03-30T09:52:57.835Z,15.33
2023-03-30T09:55:28.650Z,16.03
2023-03-30T09:58:10.112Z,15.77
2023-03-30T10:00:37.980Z,21.97
2023-03-30T10:03:07.510Z,14.37
2023-03-30T10:05:36.526Z,22.13
2023-03-30T10:08:07.242Z,15.73
2023-03-30T10:10:41.050Z,17.27
2023-03-30T10:13:16.328Z,14.90
2023-03-30T10:15:47.130Z,15.73
2023-03-30T10:18:28.750Z,18.40
2023-03-30T10:21:06.892Z,14.83
2023-03-30T10:23:44.987Z,16.57
2023-03-30T10:26:20.692Z,12.67
2023-03-30T10:29:02.937Z,13.60
2023-03-30T10:31:31.496Z,12.10
2023-03-30T10:34:01.205Z,11.27
2023-03-30T10:36:38.449Z,11.63
2023-03-30T10:39:28.552Z,15.10
2023-03-30T10:41:59.690Z,10.90
2023-03-30T10:44:42.994Z,14.13
2023-03-30T10:47:16.300Z,14.83
2023-03-30T10:49:54.521Z,13.53
2023-03-30T10:52:35.725Z,13.03
2023-03-30T10:55:22.930Z,11.70
2023-03-30T10:58:15.368Z,11.77
2023-03-30T11:00:53.292Z,8.60
2023-03-30T11:03:29.451Z,7.97
2023-03-30T11:06:19.431Z,10.13
2023-03-30T11:08:49.594Z,7.00
2023-03-30T11:11:23.791Z,9.73
2023-03-30T11:13:55.359Z,7.80
2023-03-30T11:16:30.959Z,11.90
2023-03-30T11:19:04.328Z,7.00
2023-03-30T11:22:18.817Z,7.63
2023-03-30T11:24:50.939Z,5.73
2023-03-30T11:27:30.815Z,6.30
2023-03-30T11:30:09.875Z,8.87
2023-03-30T11:32:47.557Z,11.13
2023-03-30T11:35:39.757Z,7.67
2023-03-30T11:38:32.982Z,7.53
2023-03-30T11:41:19.834Z,6.23
2023-03-30T11:43:46.983Z,7.80
2023-03-30T11:46:20.388Z,7.73
2023-03-30T11:49:14.450Z,3.80
2023-03-30T11:51:47.290Z,4.33
2023-03-30T11:54:52.579Z,5.90
2023-03-30T11:57:34.382Z,5.03
2023-03-30T12:00:19.303Z,7.30
2023-03-30T12:02:46.753Z,8.10
2023-03-30T12:05:27.499Z,11.40
2023-03-30T12:08:21.048Z,6.07
2023-03-30T12:11:19.583Z,5.93
2023-03-30T12:13:51.746Z,5.07
2023-03-30T12:16:44.709Z,4.43
2023-03-30T12:19:25.359Z,6.10
2023-03-30T12:21:55.052Z,6.27
2023-03-30T12:24:42.182Z,5.77
2023-03-30T12:27:11.869Z,4.60
2023-03-30T12:32:29.386Z,6.50
2023-03-30T12:34:58.173Z,4.93
2023-03-30T12:37:35.368Z,6.47
2023-03-30T12:40:10.557Z,5.77
2023-03-30T12:42:46.973Z,4.77
2023-03-30T12:45:28.861Z,5.87
2023-03-30T12:48:24.869Z,4.50
2023-03-30T12:50:57.536Z,5.43
2023-03-30T12:53:45.801Z,6.10
2023-03-30T12:56:20.595Z,8.47
2023-03-30T12:59:12.091Z,9.57
2023-03-30T13:01:47.900Z,5.93
2023-03-30T13:04:24.008Z,4.30
2023-03-30T13:06:56.511Z,6.90
2023-03-30T13:09:27.266Z,5.07
2023-03-30T13:11:54.172Z,6.63
2023-03-30T13:14:27.000Z,6.87
2023-03-30T13:16:53.935Z,5.37
2023-03-30T13:19:32.025Z,4.07
2023-03-30T13:22:19.915Z,5.33
2023-03-30T13:24:59.575Z,5.30
2023-03-30T13:27:30.828Z,5.87
2023-03-30T13:30:02.569Z,7.00
2023-03-30T13:32:36.264Z,7.47
2023-03-30T13:35:22.435Z,5.77
2023-03-30T13:38:04.254Z,4.97
2023-03-30T13:40:54.619Z,4.93
2023-03-30T13:44:04.815Z,12.40
2023-03-30T13:46:53.877Z,4.10
2023-03-30T13:49:29.440Z,6.90
2023-03-30T13:52:19.888Z,5.80
2023-03-30T13:54:47.491Z,5.83
2023-03-30T13:57:25.391Z,4.10
2023-03-30T13:59:59.229Z,4.73
2023-03-30T14:02:29.540Z,4.43
2023-03-30T14:05:20.455Z,6.17
2023-03-30T14:07:49.047Z,4.20
2023-03-30T14:10:21.490Z,4.70
2023-03-30T14:12:53.288Z,4.53
2023-03-30T14:15:28.245Z,7.00
2023-03-30T14:17:58.733Z,8.13
2023-03-30T14:20:36.170Z,2.67
2023-03-30T14:23:03.936Z,4.70
2023-03-30T14:25:39.129Z,5.23
2023-03-30T14:28:21.683Z,4.87
2023-03-30T14:31:03.060Z,6.80
2023-03-30T14:33:30.623Z,3.67
2023-03-30T14:35:59.988Z,8.03
2023-03-30T14:38:38.420Z,4.07
2023-03-30T14:41:27.688Z,5.53
2023-03-30T14:44:06.581Z,4.57
2023-03-30T14:46:46.990Z,7.70
2023-03-30T14:49:28.555Z,5.10
2023-03-30T14:52:09.075Z,6.33
2023-03-30T14:54:37.390Z,6.27
2023-03-30T14:57:07.757Z,3.77
2023-03-30T14:59:42.916Z,6.63
2023-03-30T15:02:22.393Z,4.60
2023-03-30T15:04:49.951Z,5.63
2023-03-30T15:07:17.994Z,7.67
2023-03-30T15:09:46.752Z,3.43
2023-03-30T15:12:48.582Z,4.90
2023-03-30T15:15:20.554Z,4.20
2023-03-30T15:17:50.468Z,9.00
2023-03-30T15:20:18.725Z,6.23
2023-03-30T15:22:48.644Z,3.03
2023-03-30T15:25:34.101Z,5.60
2023-03-30T15:28:19.138Z,6.13
2023-03-30T15:30:50.735Z,7.13
2023-03-30T15:33:39.645Z,7.70
2023-03-30T15:36:12.019Z,4.53
2023-03-30T15:39:18.946Z,6.73
2023-03-30T15:42:06.180Z,3.97
2023-03-30T15:44:38.375Z,5.40
2023-03-30T15:47:14.631Z,6.60
2023-03-30T15:49:46.069Z,6.63
2023-03-30T15:52:34.498Z,5.07
2023-03-30T15:55:11.568Z,6.37
2023-03-30T15:57:44.109Z,5.23
2023-03-30T16:00:20.780Z,5.07
2023-03-30T16:02:50.613Z,10.17
2023-03-30T16:05:20.899Z,5.97
2023-03-30T16:07:48.835Z,12.33
2023-03-30T16:10:19.570Z,7.97
2023-03-30T16:12:48.464Z,14.40
2023-03-30T16:15:17.733Z,6.70
2023-03-30T16:17:44.897Z,4.00
2023-03-30T16:20:14.884Z,7.87
2023-03-30T16:22:41.855Z,4.97
2023-03-30T16:25:09.485Z,6.97
2023-03-30T16:27:37.009Z,5.90
2023-03-30T16:30:18.835Z,9.77
2023-03-30T16:32:46.237Z,5.17
2023-03-30T16:35:13.699Z,4.87
2023-03-30T16:37:41.977Z,6.33
2023-03-30T16:40:27.727Z,3.03
2023-03-30T16:42:54.724Z,6.20
2023-03-30T16:45:21.692Z,6.20
2023-03-30T16:47:48.688Z,3.80
2023-03-30T16:50:39.582Z,10.43
2023-03-30T16:53:07.651Z,8.47
2023-03-30T16:55:35.298Z,9.37
2023-03-30T16:58:03.036Z,9.07
2023-03-30T17:00:33.602Z,33.73
2023-03-30T17:03:00.876Z,90.83
2023-03-30T17:05:28.021Z,109.97
2023-03-30T17:07:55.327Z,182.27
2023-03-30T17:10:26.342Z,185.20
2023-03-30T17:12:54.374Z,163.13
2023-03-30T17:15:22.362Z,98.50
2023-03-30T17:17:50.307Z,75.47
2023-03-30T17:20:37.342Z,86.87
2023-03-30T17:23:05.246Z,25.63
2023-03-30T17:25:32.423Z,14.80
2023-03-30T17:27:59.754Z,24.67
2023-03-30T17:30:34.408Z,9.03
2023-03-30T17:33:01.659Z,8.93
2023-03-30T17:35:28.627Z,6.13
2023-03-30T17:37:55.765Z,6.50
2023-03-30T17:40:28.173Z,8.27
2023-03-30T17:42:55.948Z,7.23
2023-03-30T17:45:25.598Z,7.23
2023-03-30T17:47:53.302Z,5.53
2023-03-30T17:50:27.062Z,4.07
2023-03-30T17:52:55.994Z,10.23
2023-03-30T17:55:26.114Z,5.17
2023-03-30T17:57:53.318Z,12.20
2023-03-30T18:00:24.898Z,7.77
2023-03-30T18:02:52.764Z,13.07
2023-03-30T18:05:21.237Z,6.73
2023-03-30T18:07:48.475Z,8.60
2023-03-30T18:10:51.839Z,6.83
2023-03-30T18:13:20.112Z,6.97
2023-03-30T18:15:49.663Z,8.27
2023-03-30T18:18:22.790Z,9.47
2023-03-30T18:20:52.856Z,10.13
2023-03-30T18:23:20.335Z,6.53
2023-03-30T18:25:47.859Z,7.07
2023-03-30T18:28:26.009Z,10.83
2023-03-30T18:30:55.409Z,8.87
2023-03-30T18:33:22.662Z,7.53
2023-03-30T18:35:51.139Z,7.23
2023-03-30T18:38:20.760Z,6.50
2023-03-30T18:40:49.631Z,10.23
2023-03-30T18:43:17.214Z,14.50
2023-03-30T18:45:49.532Z,13.87
2023-03-30T18:48:19.407Z,11.47
2023-03-30T18:50:51.567Z,13.33
2023-03-30T18:53:21.599Z,16.50
2023-03-30T18:55:51.501Z,19.00
2023-03-30T18:58:21.447Z,16.20
2023-03-30T19:00:49.991Z,15.23
2023-03-30T19:03:18.544Z,17.63
2023-03-30T19:05:46.445Z,15.53
2023-03-30T19:08:16.374Z,20.33
2023-03-30T19:10:45.254Z,15.83
2023-03-30T19:13:13.454Z,20.87
2023-03-30T19:15:40.745Z,18.67
2023-03-30T19:18:08.742Z,21.67
2023-03-30T19:20:39.947Z,21.40
2023-03-30T19:23:08.156Z,21.83
2023-03-30T19:25:35.533Z,16.37
2023-03-30T19:28:04.493Z,15.77
2023-03-30T19:30:34.793Z,18.17
2023-03-30T19:33:05.930Z,20.13
2023-03-30T19:35:33.198Z,17.20
2023-03-30T19:38:00.912Z,21.13
2023-03-30T19:40:28.333Z,20.53
2023-03-30T19:42:55.402Z,16.83
2023-03-30T19:45:23.621Z,17.13
2023-03-30T19:47:51.371Z,18.40
2023-03-30T19:50:20.571Z,20.47
2023-03-30T19:52:50.077Z,19.43
2023-03-30T19:55:20.512Z,17.53
2023-03-30T19:57:47.787Z,22.17
2023-03-30T20:00:17.125Z,18.50
2023-03-30T20:02:50.752Z,18.37
2023-03-30T20:05:20.813Z,25.27
2023-03-30T20:07:48.500Z,20.43
2023-03-30T20:10:19.110Z,17.27
2023-03-30T20:12:46.894Z,22.37
2023-03-30T20:15:14.428Z,21.00
2023-03-30T20:17:42.394Z,21.63
2023-03-30T20:20:12.627Z,18.93
2023-03-30T20:22:42.687Z,19.23
2023-03-30T20:25:12.556Z,24.53
2023-03-30T20:27:40.290Z,20.67
2023-03-30T20:30:08.298Z,21.37
2023-03-30T20:32:35.647Z,20.37
2023-03-30T20:35:03.911Z,20.23
2023-03-30T20:37:30.861Z,20.93
2023-03-30T20:40:03.737Z,19.27
2023-03-30T20:42:31.892Z,19.27
2023-03-30T20:44:59.645Z,19.40
2023-03-30T20:47:31.071Z,22.17
2023-03-30T20:49:59.183Z,22.50
2023-03-30T20:52:27.146Z,21.67
2023-03-30T20:54:54.521Z,20.30
2023-03-30T20:57:21.784Z,19.10
2023-03-30T20:59:49.716Z,20.17
2023-03-30T21:02:17.445Z,16.13
2023-03-30T21:04:45.233Z,17.00
2023-03-30T21:07:12.689Z,23.47
2023-03-30T21:09:40.201Z,24.67
2023-03-30T21:12:08.578Z,21.37
2023-03-30T21:14:35.911Z,23.13
2023-03-30T21:17:02.995Z,19.43
2023-03-30T21:19:30.013Z,19.33
2023-03-30T21:21:57.068Z,19.70
2023-03-30T21:24:24.127Z,22.03
2023-03-30T21:26:51.262Z,22.77
2023-03-30T21:29:18.469Z,17.53
2023-03-30T21:31:45.569Z,19.20
2023-03-30T21:34:13.189Z,21.40
2023-03-30T21:36:40.226Z,22.63
2023-03-30T21:39:07.370Z,19.60
2023-03-30T21:41:34.286Z,14.93
2023-03-30T21:44:01.416Z,19.30
2023-03-30T21:46:28.484Z,20.50
2023-03-30T21:48:55.526Z,20.33
2023-03-30T21:51:27.795Z,20.03
2023-03-30T21:53:56.502Z,21.90
2023-03-30T21:56:26.016Z,24.70
2023-03-30T21:58:53.250Z,18.13
2023-03-30T22:01:21.827Z,22.23
2023-03-30T22:03:48.871Z,18.73
2023-03-30T22:06:17.355Z,22.77
2023-03-30T22:08:45.698Z,23.10
2023-03-30T22:11:15.966Z,18.43
2023-03-30T22:13:44.020Z,16.00
2023-03-30T22:16:22.649Z,20.90
2023-03-30T22:18:50.601Z,26.53
2023-03-30T22:21:20.761Z,18.03
2023-03-30T22:23:47.945Z,13.83
2023-03-30T22:26:15.574Z,14.07
2023-03-30T22:28:43.023Z,11.93
2023-03-30T22:31:13.099Z,17.70
2023-03-30T22:33:40.626Z,16.23
2023-03-30T22:36:16.869Z,16.33
2023-03-30T22:38:44.002Z,15.23
2023-03-30T22:41:11.093Z,16.50
2023-03-30T22:43:38.119Z,19.23
2023-03-30T22:46:06.770Z,18.37
2023-03-30T22:48:35.556Z,18.03
2023-03-30T22:51:08.357Z,19.93
2023-03-30T22:53:35.843Z,13.40
2023-03-30T22:56:02.870Z,21.57
2023-03-30T22:58:29.995Z,17.00
2023-03-30T23:01:06.968Z,17.00
2023-03-30T23:03:34.608Z,14.03
2023-03-30T23:06:01.760Z,15.30
2023-03-30T23:08:30.018Z,14.63
2023-03-30T23:11:04.390Z,18.43
2023-03-30T23:13:32.643Z,25.10
2023-03-30T23:15:59.671Z,22.80
2023-03-30T23:18:27.099Z,22.33
2023-03-30T23:20:55.656Z,16.80
2023-03-30T23:23:22.790Z,15.30
2023-03-30T23:25:51.075Z,17.47
2023-03-30T23:28:18.528Z,14.90
2023-03-30T23:30:45.930Z,17.80
2023-03-30T23:33:13.539Z,17.23
2023-03-30T23:35:47.404Z,20.13
2023-03-30T23:38:14.469Z,15.60
2023-03-30T23:40:41.579Z,17.30
2023-03-30T23:43:08.813Z,15.40
2023-03-30T23:45:35.868Z,15.13
2023-03-30T23:48:02.884Z,15.93
2023-03-30T23:50:29.713Z,17.43
2023-03-30T23:52:57.744Z,22.20
2023-03-30T23:55:24.964Z,17.30
2023-03-30T23:57:51.882Z,16.47
